Portada
METAR-TAF:

METAR-TAF

Aeroports :

Udaipur, Índia

latitud: 24-37-04N, longitud: 73-53-46E, altitud: 513 m

Observació

L'informe es va fer fa 24 minuts, a les 11:30 UTC
Vent 1 kt del Est
Temperatura 16°C
Humitat 82%
Pressió 1018 hPa
Visibilitat: 4000 m
Núvols disperses a una alçada de 2500 ft
Cel cobert a una alçada de 8000 ft
plugim

METAR: VAUD 021130Z 09001KT 4000 -DZ SCT025 OVC080 16/13 Q1018 NOSIG

Hora: 17:24 (11:54 UTC)

Pronòstic

L'informe es va fer fa 54 minuts, a les 11:00 UTC
Pronòstic vàlid del 02 a les 12 UTC al 02 a les 21 UTC
Vent 3 kt amb direcció variable
Visibilitat: 2500 m
Núvols disperses a una alçada de 2500 ft
Cel ennuvolat a una alçada de 8000 ft
calitja

TAF: VAUD 021100Z 0212/0221 VRB03KT 2500 HZ SCT025 BKN080

Observacions i pronòstics meteorològics de més de 4000 aeroports (METAR i TAF).

Les estacions disponibles són els punts grocs i vermells al mapa.

Posi el ratolí al punt desitjat per veure el nom de l'estació.

Feu clic per veure les observacions i els pronòstics meteorològics.

Per canviar el mapa: feu clic els botons verds amb una creu de color negre per apropar; al botó verd amb un guió per allunyar la imatge; o en les fletxes verdes per a mapes adjacents.


METAR-TAF: